Time;durP1;ratioP1;P1;durP2;ratioP2;P2;SDS_P1;SDS_P2;PMS_P1;PMS_P2;Temp;Humidity;BMP_temperature;BMP_pressure;BME280_temperature;BME280_humidity;BME280_pressure;Samples;Min_cycle;Max_cycle;Signal;HPM_P1;HPM_P2
2022/12/17 13:08:08;;;;;;;;;;;15.50;99.90;;;;;;5055367;28;19966;-69
2022/12/17 13:10:35;;;;;;;;;;;15.40;99.90;;;;;;5056292;28;19909;-71
2022/12/17 13:13:25;;;;;;;;;;;15.40;99.90;;;;;;5054825;28;19913;-71
2022/12/17 13:15:56;;;;;;;;;;;15.40;99.90;;;;;;5046332;28;19908;-71
2022/12/17 13:18:23;;;;;;;;;;;15.40;99.90;;;;;;5055711;28;20375;-71
2022/12/17 13:21:00;;;;;;;;;;;15.30;99.90;;;;;;5056523;28;19913;-69
2022/12/17 13:23:29;;;;;;;;;;;15.30;99.90;;;;;;5052868;28;19920;-71
2022/12/17 13:26:03;;;;;;;;;;;15.20;99.90;;;;;;5055572;28;19956;-70
2022/12/17 13:28:30;;;;;;;;;;;15.30;99.90;;;;;;5053998;28;20359;-71
2022/12/17 13:31:16;;;;;;;;;;;15.40;99.90;;;;;;5055870;28;19913;-70
2022/12/17 13:34:05;;;;;;;;;;;15.50;99.90;;;;;;5054547;28;19913;-70
2022/12/17 13:36:32;;;;;;;;;;;15.50;99.90;;;;;;5047621;28;19912;-71
2022/12/17 13:39:09;;;;;;;;;;;15.00;99.90;;;;;;5054645;28;20011;-70
2022/12/17 13:41:37;;;;;;;;;;;14.90;99.90;;;;;;5055485;28;20373;-68
2022/12/17 13:44:17;;;;;;;;;;;14.70;99.90;;;;;;5054078;28;19918;-68
2022/12/17 13:46:47;;;;;;;;;;;14.60;99.90;;;;;;5053808;28;19939;-67
2022/12/17 13:49:20;;;;;;;;;;;14.60;99.90;;;;;;5054008;28;19925;-72
2022/12/17 13:51:47;;;;;;;;;;;14.70;99.90;;;;;;5054947;28;20355;-69
2022/12/17 13:54:18;;;;;;;;;;;14.60;99.90;;;;;;5053879;28;19917;-68
2022/12/17 13:56:45;;;;;;;;;;;14.60;99.90;;;;;;5054689;28;19908;-66
2022/12/17 13:59:20;;;;;;;;;;;14.60;99.90;;;;;;5053736;28;20019;-70
2022/12/17 14:01:47;;;;;;;;;;;14.60;99.90;;;;;;5053511;28;19924;-71
2022/12/17 14:04:40;;;;;;;;;;;14.70;99.90;;;;;;5054543;28;19935;-70
2022/12/17 14:07:06;;;;;;;;;;;14.70;99.90;;;;;;5050765;28;20405;-70
2022/12/17 14:09:36;;;;;;;;;;;14.60;99.90;;;;;;5054574;28;19912;-70
2022/12/17 14:12:23;;;;;;;;;;;14.70;99.90;;;;;;5052767;28;19919;-70
2022/12/17 14:14:56;;;;;;;;;;;14.70;99.90;;;;;;5054317;28;20263;-70
2022/12/17 14:17:24;;;;;;;;;;;14.70;99.90;;;;;;5053467;28;19989;-70
2022/12/17 14:20:16;;;;;;;;;;;14.70;99.90;;;;;;5054524;28;20433;-70
2022/12/17 14:22:45;;;;;;;;;;;14.80;99.90;;;;;;5048934;28;20359;-71
2022/12/17 14:25:16;;;;;;;;;;;14.80;99.90;;;;;;5054517;28;19909;-69
2022/12/17 14:27:51;;;;;;;;;;;14.80;99.90;;;;;;5053228;28;19917;-70
2022/12/17 14:30:21;;;;;;;;;;;14.80;99.90;;;;;;5054181;28;19909;-72
2022/12/17 14:32:48;;;;;;;;;;;14.90;99.90;;;;;;5052990;28;19916;-70
2022/12/17 14:35:22;;;;;;;;;;;14.90;99.90;;;;;;5054064;28;19913;-70
2022/12/17 14:37:49;;;;;;;;;;;14.90;99.90;;;;;;5051904;28;19970;-70
2022/12/17 14:40:16;;;;;;;;;;;14.80;99.90;;;;;;5053469;28;19995;-70
2022/12/17 14:42:42;;;;;;;;;;;14.80;99.90;;;;;;5053241;28;19983;-71
2022/12/17 14:45:15;;;;;;;;;;;14.80;99.90;;;;;;5053607;28;19909;-72
2022/12/17 14:48:07;;;;;;;;;;;14.80;99.90;;;;;;5053483;28;19916;-71
2022/12/17 14:50:34;;;;;;;;;;;14.80;99.90;;;;;;5052930;28;19912;-70
2022/12/17 14:53:03;;;;;;;;;;;14.70;99.90;;;;;;5052622;28;20272;-72
2022/12/17 14:55:32;;;;;;;;;;;14.70;99.90;;;;;;5053970;28;19908;-71
2022/12/17 14:58:14;;;;;;;;;;;14.70;99.90;;;;;;5110105;27;20273;-71
2022/12/17 15:00:52;;;;;;;;;;;14.70;99.90;;;;;;5110977;28;19912;-70
2022/12/17 15:03:23;;;;;;;;;;;14.60;99.90;;;;;;5109689;28;19915;-70
2022/12/17 15:05:52;;;;;;;;;;;14.70;99.90;;;;;;5110050;28;19957;-70
2022/12/17 15:08:19;;;;;;;;;;;14.70;99.90;;;;;;5110350;28;19912;-71
2022/12/17 15:10:46;;;;;;;;;;;14.70;99.90;;;;;;5110604;28;19908;-69
2022/12/17 15:13:13;;;;;;;;;;;14.60;99.90;;;;;;5108019;28;19915;-71
2022/12/17 15:15:39;;;;;;;;;;;14.60;99.90;;;;;;5109570;28;20316;-70
2022/12/17 15:18:06;;;;;;;;;;;14.50;99.90;;;;;;5110388;28;20327;-71
2022/12/17 15:20:33;;;;;;;;;;;14.50;99.90;;;;;;5109322;28;19960;-71
2022/12/17 15:23:00;;;;;;;;;;;14.50;99.90;;;;;;5108956;28;19916;-71
2022/12/17 15:25:27;;;;;;;;;;;14.50;99.90;;;;;;5110469;28;20044;-71
2022/12/17 15:27:54;;;;;;;;;;;14.50;99.90;;;;;;5109627;28;20255;-71
2022/12/17 15:30:21;;;;;;;;;;;14.50;99.90;;;;;;5108826;28;19912;-71
2022/12/17 15:32:47;;;;;;;;;;;14.50;99.90;;;;;;5109945;28;19919;-71
2022/12/17 15:35:14;;;;;;;;;;;14.50;99.90;;;;;;5109084;28;19915;-70
2022/12/17 15:37:41;;;;;;;;;;;14.50;99.90;;;;;;5109911;28;20010;-72
2022/12/17 15:40:10;;;;;;;;;;;14.40;99.90;;;;;;5109175;28;19919;-72
2022/12/17 15:45:22;;;;;;;;;;;14.50;99.90;;;;;;5109436;28;20007;-71
2022/12/17 15:47:48;;;;;;;;;;;14.50;99.90;;;;;;5109758;28;19919;-70
2022/12/17 15:50:15;;;;;;;;;;;14.50;99.90;;;;;;5109276;28;20289;-72
2022/12/17 15:52:42;;;;;;;;;;;14.50;99.90;;;;;;5108734;28;19931;-71
2022/12/17 15:55:09;;;;;;;;;;;14.50;99.90;;;;;;5109553;28;20443;-72
2022/12/17 15:57:35;;;;;;;;;;;14.40;99.90;;;;;;5107450;28;19920;-72
2022/12/17 16:00:02;;;;;;;;;;;14.40;99.90;;;;;;5089225;28;19912;-73
2022/12/17 16:02:29;;;;;;;;;;;14.40;99.90;;;;;;5108690;28;20007;-73
2022/12/17 16:04:56;;;;;;;;;;;14.40;99.90;;;;;;5109224;28;20012;-71
2022/12/17 16:07:22;;;;;;;;;;;14.30;99.90;;;;;;5107638;28;20290;-72
2022/12/17 16:09:49;;;;;;;;;;;14.20;99.90;;;;;;5095586;28;19954;-72
2022/12/17 16:12:16;;;;;;;;;;;14.30;99.90;;;;;;5093610;28;19919;-72
2022/12/17 16:14:42;;;;;;;;;;;14.20;99.90;;;;;;5095813;28;19912;-72
2022/12/17 16:17:09;;;;;;;;;;;14.30;99.90;;;;;;5094309;28;20374;-72
2022/12/17 16:19:36;;;;;;;;;;;14.30;99.90;;;;;;5095831;28;19955;-69
2022/12/17 16:22:03;;;;;;;;;;;14.40;99.90;;;;;;5093572;28;19909;-72
2022/12/17 16:24:29;;;;;;;;;;;14.40;99.90;;;;;;5094699;28;19919;-72
2022/12/17 16:26:56;;;;;;;;;;;14.40;99.90;;;;;;5095406;28;20381;-72
2022/12/17 16:29:23;;;;;;;;;;;14.30;99.90;;;;;;5094843;28;19908;-71
2022/12/17 16:31:49;;;;;;;;;;;14.30;99.90;;;;;;5095470;28;19916;-71
2022/12/17 16:34:16;;;;;;;;;;;14.20;99.90;;;;;;5094503;28;19908;-72
2022/12/17 16:36:43;;;;;;;;;;;14.20;99.90;;;;;;5095602;28;20011;-73
2022/12/17 16:39:15;;;;;;;;;;;14.30;99.90;;;;;;5093134;28;20287;-73
2022/12/17 16:41:42;;;;;;;;;;;14.30;99.90;;;;;;5095426;28;20007;-71
2022/12/17 16:44:09;;;;;;;;;;;14.10;99.90;;;;;;5094311;28;19923;-68
2022/12/17 16:46:37;;;;;;;;;;;14.20;99.90;;;;;;5095269;28;19919;-64
2022/12/17 16:49:06;;;;;;;;;;;14.20;99.90;;;;;;5094383;28;19908;-64
2022/12/17 16:51:33;;;;;;;;;;;14.10;99.90;;;;;;5094142;28;20383;-71
2022/12/17 16:54:03;;;;;;;;;;;14.00;99.90;;;;;;5093502;28;20449;-63
2022/12/17 16:56:29;;;;;;;;;;;14.00;99.90;;;;;;5102048;28;19920;-63
2022/12/17 16:58:56;;;;;;;;;;;14.00;99.90;;;;;;5113922;28;19919;-63
2022/12/17 17:01:24;;;;;;;;;;;14.00;99.90;;;;;;5115287;28;19908;-63
2022/12/17 17:03:51;;;;;;;;;;;14.10;99.90;;;;;;5110404;28;20004;-63
2022/12/17 17:06:18;;;;;;;;;;;14.10;99.90;;;;;;5115284;28;20243;-63
2022/12/17 17:08:44;;;;;;;;;;;14.10;99.90;;;;;;5113835;28;19955;-63
2022/12/17 17:11:12;;;;;;;;;;;14.20;99.90;;;;;;5115139;28;19908;-63
2022/12/17 17:13:39;;;;;;;;;;;14.10;99.90;;;;;;5113925;28;19927;-63
2022/12/17 17:16:06;;;;;;;;;;;14.10;99.90;;;;;;5114872;28;19918;-63
2022/12/17 17:18:34;;;;;;;;;;;14.20;99.90;;;;;;5110125;28;20445;-63
2022/12/17 17:21:31;;;;;;;;;;;14.10;99.90;;;;;;5112484;28;19912;-61
2022/12/17 17:23:58;;;;;;;;;;;14.10;99.90;;;;;;5098513;28;19935;-63
2022/12/17 17:26:26;;;;;;;;;;;14.00;99.90;;;;;;5114966;28;19908;-63
2022/12/17 17:28:53;;;;;;;;;;;14.00;99.90;;;;;;5112862;28;20362;-71
2022/12/17 17:31:20;;;;;;;;;;;14.10;99.90;;;;;;5109703;28;19919;-70
2022/12/17 17:33:48;;;;;;;;;;;14.10;99.90;;;;;;5114691;28;19990;-71
2022/12/17 17:36:25;;;;;;;;;;;14.10;99.90;;;;;;5113040;28;19927;-70
2022/12/17 17:38:56;;;;;;;;;;;14.10;99.90;;;;;;5112417;28;19919;-71
2022/12/17 17:41:23;;;;;;;;;;;14.00;99.90;;;;;;5114683;28;20282;-71
2022/12/17 17:43:54;;;;;;;;;;;14.00;99.90;;;;;;5109834;28;19916;-71
2022/12/17 17:46:21;;;;;;;;;;;13.90;99.90;;;;;;5113167;28;20015;-70
2022/12/17 17:48:48;;;;;;;;;;;13.90;99.90;;;;;;5114270;28;19966;-71
2022/12/17 17:51:17;;;;;;;;;;;13.90;99.90;;;;;;5112832;28;19950;-68
2022/12/17 17:53:44;;;;;;;;;;;13.80;99.90;;;;;;5109482;28;19916;-65
2022/12/17 17:56:15;;;;;;;;;;;13.80;99.90;;;;;;5113757;28;19969;-72
2022/12/17 17:58:43;;;;;;;;;;;13.80;99.90;;;;;;5112225;28;20028;-71
2022/12/17 18:01:10;;;;;;;;;;;13.90;99.90;;;;;;5113894;28;19908;-72
2022/12/17 18:03:37;;;;;;;;;;;13.90;99.90;;;;;;5112702;28;19918;-71
2022/12/17 18:06:05;;;;;;;;;;;14.00;99.90;;;;;;5112286;28;19915;-68
2022/12/17 18:08:33;;;;;;;;;;;14.00;99.90;;;;;;5110401;28;19911;-70
2022/12/17 18:11:01;;;;;;;;;;;13.80;99.90;;;;;;5114016;28;19907;-71
2022/12/17 18:16:13;;;;;;;;;;;13.90;99.90;;;;;;5114178;28;20296;-72
2022/12/17 18:18:39;;;;;;;;;;;13.80;99.90;;;;;;5112410;28;20400;-70
2022/12/17 18:21:08;;;;;;;;;;;13.80;99.90;;;;;;5108593;28;19916;-71
2022/12/17 18:23:35;;;;;;;;;;;13.90;99.90;;;;;;5113814;28;19916;-71
2022/12/17 18:26:05;;;;;;;;;;;13.90;99.90;;;;;;5112233;28;19919;-71
2022/12/17 18:28:32;;;;;;;;;;;13.80;99.90;;;;;;5113241;28;19912;-69
2022/12/17 18:31:04;;;;;;;;;;;13.80;99.90;;;;;;5111241;28;19946;-69
2022/12/17 18:33:30;;;;;;;;;;;13.80;99.90;;;;;;5108652;28;19954;-70
2022/12/17 18:35:57;;;;;;;;;;;13.90;99.90;;;;;;5094881;28;20284;-71
2022/12/17 18:38:24;;;;;;;;;;;13.80;99.90;;;;;;5109297;28;19957;-71
2022/12/17 18:40:50;;;;;;;;;;;13.80;99.90;;;;;;5112995;28;20338;-69
2022/12/17 18:43:23;;;;;;;;;;;13.80;99.90;;;;;;5111712;28;19911;-71
2022/12/17 18:45:51;;;;;;;;;;;13.80;99.90;;;;;;5108654;28;20416;-67
2022/12/17 18:48:18;;;;;;;;;;;13.80;99.90;;;;;;5113258;28;19915;-68
2022/12/17 18:50:45;;;;;;;;;;;13.80;99.90;;;;;;5111486;28;19912;-66
2022/12/17 18:53:12;;;;;;;;;;;13.80;99.90;;;;;;5113113;28;19908;-65
2022/12/17 18:55:39;;;;;;;;;;;13.80;99.90;;;;;;5111537;28;19937;-67
2022/12/17 18:58:09;;;;;;;;;;;13.80;99.90;;;;;;5112807;28;19970;-71
2022/12/17 19:00:36;;;;;;;;;;;13.80;99.90;;;;;;5110781;28;19908;-71
2022/12/17 19:03:04;;;;;;;;;;;13.70;99.90;;;;;;5108256;28;19964;-71
2022/12/17 19:05:31;;;;;;;;;;;13.70;99.90;;;;;;5111079;28;19907;-71
2022/12/17 19:07:57;;;;;;;;;;;13.70;99.90;;;;;;5110659;28;20638;-70
2022/12/17 19:10:24;;;;;;;;;;;13.70;99.90;;;;;;5112926;28;19915;-70
2022/12/17 19:12:51;;;;;;;;;;;13.80;99.90;;;;;;5107524;28;19943;-70
2022/12/17 19:15:17;;;;;;;;;;;13.80;99.90;;;;;;5112745;28;20514;-69
2022/12/17 19:17:44;;;;;;;;;;;13.90;99.90;;;;;;5111021;28;19922;-68
2022/12/17 19:20:11;;;;;;;;;;;13.90;99.90;;;;;;5112660;28;19918;-72
2022/12/17 19:22:38;;;;;;;;;;;13.80;99.90;;;;;;5110986;28;20353;-70
2022/12/17 19:25:05;;;;;;;;;;;13.70;99.90;;;;;;5112442;28;19934;-72
2022/12/17 19:27:31;;;;;;;;;;;13.60;99.90;;;;;;5107107;28;20362;-71
2022/12/17 19:29:58;;;;;;;;;;;13.60;99.90;;;;;;5110979;28;19923;-71
2022/12/17 19:32:25;;;;;;;;;;;13.70;99.90;;;;;;5112382;28;19953;-68
2022/12/17 19:34:51;;;;;;;;;;;13.60;99.90;;;;;;5110777;28;20366;-71
2022/12/17 19:37:18;;;;;;;;;;;13.70;99.90;;;;;;5112271;28;19991;-71
2022/12/17 19:39:45;;;;;;;;;;;13.70;99.90;;;;;;5110510;28;19907;-71
2022/12/17 19:42:23;;;;;;;;;;;13.60;99.90;;;;;;5107740;28;19927;-69
2022/12/17 19:44:50;;;;;;;;;;;13.60;99.90;;;;;;5115853;28;20419;-71
2022/12/17 19:47:17;;;;;;;;;;;13.70;99.90;;;;;;5114724;28;19960;-69
2022/12/17 19:49:44;;;;;;;;;;;13.60;99.90;;;;;;5116410;28;20354;-71
2022/12/17 19:52:10;;;;;;;;;;;13.70;99.90;;;;;;5110718;28;19916;-69
2022/12/17 19:54:37;;;;;;;;;;;13.80;99.90;;;;;;5116185;28;19939;-69
2022/12/17 19:57:04;;;;;;;;;;;13.80;99.90;;;;;;5105318;28;19920;-69
2022/12/17 19:59:31;;;;;;;;;;;13.80;99.90;;;;;;5095686;28;20354;-69
2022/12/17 20:02:02;;;;;;;;;;;13.80;99.90;;;;;;5101081;28;19992;-71
2022/12/17 20:04:29;;;;;;;;;;;13.70;99.90;;;;;;5116271;28;19961;-70
2022/12/17 20:06:57;;;;;;;;;;;13.80;99.90;;;;;;5114072;28;19916;-69
2022/12/17 20:09:24;;;;;;;;;;;13.90;99.90;;;;;;5111936;28;19911;-68
2022/12/17 20:11:51;;;;;;;;;;;13.90;99.90;;;;;;5116103;28;19908;-73
2022/12/17 20:14:22;;;;;;;;;;;13.80;99.90;;;;;;5114669;28;19912;-65
2022/12/17 20:16:53;;;;;;;;;;;13.90;99.90;;;;;;5115303;28;19923;-71
2022/12/17 20:19:22;;;;;;;;;;;13.90;99.90;;;;;;5114348;28;19911;-71
2022/12/17 20:21:49;;;;;;;;;;;13.80;99.90;;;;;;5115638;28;20358;-71
2022/12/17 20:24:16;;;;;;;;;;;13.80;99.90;;;;;;5111136;28;20048;-71
2022/12/17 20:26:43;;;;;;;;;;;13.80;99.90;;;;;;5112129;28;19911;-69
2022/12/17 20:29:10;;;;;;;;;;;13.80;99.90;;;;;;5115401;28;20300;-71
2022/12/17 20:31:37;;;;;;;;;;;13.80;99.90;;;;;;5113989;28;19916;-71
2022/12/17 20:34:05;;;;;;;;;;;13.70;99.90;;;;;;5097435;28;19908;-70
2022/12/17 20:36:32;;;;;;;;;;;13.80;99.90;;;;;;5114068;28;19924;-71
2022/12/17 20:38:59;;;;;;;;;;;13.80;99.90;;;;;;5110320;28;19915;-72
2022/12/17 20:41:27;;;;;;;;;;;13.90;99.90;;;;;;5115180;28;19914;-71
2022/12/17 20:43:54;;;;;;;;;;;13.90;99.90;;;;;;5114024;28;19911;-68
2022/12/17 20:46:21;;;;;;;;;;;14.00;99.90;;;;;;5115104;28;19958;-70
2022/12/17 20:48:49;;;;;;;;;;;14.00;99.90;;;;;;5113500;28;19935;-69
2022/12/17 20:51:16;;;;;;;;;;;14.00;99.90;;;;;;5115253;28;19908;-71
2022/12/17 20:53:44;;;;;;;;;;;14.00;99.90;;;;;;5110447;28;19919;-70
2022/12/17 20:56:12;;;;;;;;;;;14.00;99.90;;;;;;5114632;28;19931;-71
2022/12/17 20:58:40;;;;;;;;;;;14.00;99.90;;;;;;5112469;28;19915;-69
2022/12/17 21:01:19;;;;;;;;;;;14.00;99.90;;;;;;5114773;28;19914;-70
2022/12/17 21:03:48;;;;;;;;;;;14.00;99.90;;;;;;5102509;28;20269;-69
2022/12/17 21:06:17;;;;;;;;;;;14.00;99.90;;;;;;5114834;28;19908;-66
2022/12/17 21:08:44;;;;;;;;;;;14.00;99.90;;;;;;5113443;28;19934;-68
2022/12/17 21:11:11;;;;;;;;;;;14.10;99.90;;;;;;5114983;28;19927;-64
2022/12/17 21:13:37;;;;;;;;;;;14.20;99.90;;;;;;5113163;28;19919;-71
2022/12/17 21:16:05;;;;;;;;;;;14.10;99.90;;;;;;5114838;28;19986;-64
2022/12/17 21:18:32;;;;;;;;;;;14.00;99.90;;;;;;5108728;28;19930;-64
2022/12/17 21:20:59;;;;;;;;;;;14.10;99.90;;;;;;5114416;28;20326;-62
2022/12/17 21:23:27;;;;;;;;;;;14.20;99.90;;;;;;5113242;28;20014;-62
2022/12/17 21:25:58;;;;;;;;;;;14.20;99.90;;;;;;5114622;28;19988;-62
2022/12/17 21:28:25;;;;;;;;;;;14.20;99.90;;;;;;5112209;28;19911;-62
2022/12/17 21:30:51;;;;;;;;;;;14.20;99.90;;;;;;5114291;28;19939;-64
2022/12/17 21:33:18;;;;;;;;;;;14.10;99.90;;;;;;5109628;28;19915;-62
2022/12/17 21:35:45;;;;;;;;;;;14.10;99.90;;;;;;5112984;28;20334;-68
2022/12/17 21:38:12;;;;;;;;;;;14.10;99.90;;;;;;5114176;28;19915;-61
2022/12/17 21:40:38;;;;;;;;;;;14.00;99.90;;;;;;5106907;28;20324;-62
2022/12/17 21:43:05;;;;;;;;;;;14.00;99.90;;;;;;5096179;28;20269;-62
2022/12/17 21:45:36;;;;;;;;;;;14.00;99.90;;;;;;5087310;28;19912;-62
2022/12/17 21:48:07;;;;;;;;;;;14.00;99.90;;;;;;5093671;28;19931;-61
2022/12/17 21:50:34;;;;;;;;;;;14.00;99.90;;;;;;5093486;28;20003;-62
2022/12/17 21:53:00;;;;;;;;;;;14.10;99.90;;;;;;5093243;28;19915;-63
2022/12/17 21:55:27;;;;;;;;;;;14.10;99.90;;;;;;5106532;28;19912;-62
2022/12/17 21:57:54;;;;;;;;;;;14.20;99.90;;;;;;5108968;28;19959;-62
2022/12/17 22:00:21;;;;;;;;;;;14.20;99.90;;;;;;5112527;28;19963;-61
2022/12/17 22:02:47;;;;;;;;;;;14.10;99.90;;;;;;5113539;28;19911;-62
2022/12/17 22:05:14;;;;;;;;;;;14.00;99.90;;;;;;5112182;28;20282;-62
2022/12/17 22:07:41;;;;;;;;;;;14.10;99.90;;;;;;5113518;28;19907;-62
2022/12/17 22:10:08;;;;;;;;;;;14.10;99.90;;;;;;5108796;28;19912;-62
2022/12/17 22:15:19;;;;;;;;;;;14.10;99.90;;;;;;5113973;28;19930;-62
2022/12/17 22:17:46;;;;;;;;;;;14.10;99.90;;;;;;5112154;28;19919;-62
2022/12/17 22:20:15;;;;;;;;;;;14.20;99.90;;;;;;5095219;28;19956;-62
2022/12/17 22:22:42;;;;;;;;;;;14.10;99.90;;;;;;5106909;28;19912;-62
2022/12/17 22:25:09;;;;;;;;;;;14.10;99.90;;;;;;5112770;28;19912;-67
2022/12/17 22:27:35;;;;;;;;;;;14.20;99.90;;;;;;5113264;28;20362;-62
2022/12/17 22:32:58;;;;;;;;;;;14.20;99.90;;;;;;5113044;28;19918;-62
2022/12/17 22:35:26;;;;;;;;;;;14.30;99.90;;;;;;5111056;28;19908;-62
2022/12/17 22:37:53;;;;;;;;;;;14.40;99.90;;;;;;5108063;28;20742;-62
2022/12/17 22:40:21;;;;;;;;;;;14.50;99.90;;;;;;5111105;28;20377;-62
2022/12/17 22:45:36;;;;;;;;;;;14.40;99.90;;;;;;5112016;28;19919;-62
2022/12/17 22:48:03;;;;;;;;;;;14.60;99.90;;;;;;5113014;28;19908;-65
2022/12/17 22:50:30;;;;;;;;;;;14.70;99.90;;;;;;5111612;28;19919;-64
2022/12/17 22:52:56;;;;;;;;;;;14.70;99.90;;;;;;5107838;28;19911;-62
2022/12/17 22:55:23;;;;;;;;;;;14.70;99.90;;;;;;5112983;28;19994;-64
2022/12/17 22:57:50;;;;;;;;;;;14.90;99.90;;;;;;5111299;28;19934;-62
2022/12/17 23:00:20;;;;;;;;;;;15.20;99.90;;;;;;5112941;28;20424;-64
2022/12/17 23:02:46;;;;;;;;;;;15.10;99.90;;;;;;5111155;28;19918;-63
2022/12/17 23:05:13;;;;;;;;;;;14.90;99.90;;;;;;5112963;28;20296;-62
2022/12/17 23:07:40;;;;;;;;;;;14.90;99.90;;;;;;5108635;28;20346;-63
2022/12/17 23:10:08;;;;;;;;;;;15.00;99.90;;;;;;5111702;28;19919;-63
2022/12/17 23:12:49;;;;;;;;;;;15.00;99.90;;;;;;5107815;28;19911;-62
2022/12/17 23:15:17;;;;;;;;;;;15.20;99.90;;;;;;5112620;28;19908;-62
2022/12/17 23:17:44;;;;;;;;;;;15.30;99.90;;;;;;5111375;28;19920;-64
2022/12/17 23:20:11;;;;;;;;;;;15.50;99.90;;;;;;5113621;28;19907;-64
2022/12/17 23:22:37;;;;;;;;;;;15.70;99.90;;;;;;5115328;28;19908;-62
2022/12/17 23:25:04;;;;;;;;;;;16.00;99.90;;;;;;5115153;28;19908;-63
2022/12/17 23:27:31;;;;;;;;;;;16.20;99.90;;;;;;5116540;28;19908;-63
2022/12/17 23:29:58;;;;;;;;;;;16.10;99.90;;;;;;5116344;28;19934;-64
2022/12/17 23:32:25;;;;;;;;;;;16.20;99.90;;;;;;5109913;28;20028;-66
2022/12/17 23:34:52;;;;;;;;;;;16.30;99.90;;;;;;5114980;28;20339;-63
2022/12/17 23:37:18;;;;;;;;;;;16.20;99.90;;;;;;5114911;28;19924;-63
2022/12/17 23:39:45;;;;;;;;;;;16.10;99.90;;;;;;5116424;28;19960;-71
2022/12/17 23:42:12;;;;;;;;;;;16.00;99.90;;;;;;5110634;28;20363;-66
2022/12/17 23:44:38;;;;;;;;;;;16.00;99.90;;;;;;5115030;28;19936;-64
2022/12/17 23:47:05;;;;;;;;;;;16.00;99.90;;;;;;5116071;28;20002;-66
2022/12/17 23:49:32;;;;;;;;;;;16.00;99.90;;;;;;5114764;28;19911;-66
2022/12/17 23:51:58;;;;;;;;;;;16.10;99.90;;;;;;5115950;28;19912;-69
2022/12/17 23:54:25;;;;;;;;;;;16.30;99.90;;;;;;5113388;28;19919;-68
2022/12/17 23:56:52;;;;;;;;;;;16.20;99.90;;;;;;5109539;28;19920;-70
2022/12/17 23:59:18;;;;;;;;;;;16.30;99.90;;;;;;5116033;28;20267;-69
